Time;durP1;ratioP1;P1;durP2;ratioP2;P2;SDS_P1;SDS_P2;PMS_P1;PMS_P2;Temp;Humidity;BMP_temperature;BMP_pressure;BME280_temperature;BME280_humidity;BME280_pressure;Samples;Min_cycle;Max_cycle;Signal;HPM_P1;HPM_P2
2023/02/01 00:01:38;;;;;;;23.90;4.57;;;5.10;99.90;;;;;;5070851;28;20026;-40
2023/02/01 00:04:04;;;;;;;33.45;5.05;;;5.00;99.90;;;;;;5070795;28;20070;-40
2023/02/01 00:06:30;;;;;;;27.63;5.03;;;5.00;99.90;;;;;;5069901;28;20078;-40
2023/02/01 00:08:56;;;;;;;32.80;5.95;;;5.00;99.90;;;;;;5076594;28;20098;-39
2023/02/01 00:11:22;;;;;;;21.15;4.95;;;5.00;99.90;;;;;;5082201;28;20020;-39
2023/02/01 00:13:48;;;;;;;27.50;5.57;;;5.10;99.90;;;;;;5090779;28;20349;-39
2023/02/01 00:16:23;;;;;;;21.27;4.78;;;5.10;99.90;;;;;;5089009;28;20110;-38
2023/02/01 00:18:50;;;;;;;35.55;5.82;;;5.10;99.90;;;;;;5090688;28;20077;-39
2023/02/01 00:21:20;;;;;;;21.52;4.47;;;5.20;99.90;;;;;;5083040;28;20433;-39
2023/02/01 00:23:46;;;;;;;33.17;5.97;;;5.20;99.90;;;;;;5070050;28;20024;-40
2023/02/01 00:26:31;;;;;;;23.70;4.63;;;5.20;99.90;;;;;;5068467;28;20025;-38
2023/02/01 00:28:56;;;;;;;22.77;4.32;;;5.30;99.90;;;;;;5069944;28;20478;-39
2023/02/01 00:31:22;;;;;;;24.58;4.28;;;5.30;99.90;;;;;;5070464;28;20036;-38
2023/02/01 00:33:48;;;;;;;30.40;5.30;;;5.30;99.90;;;;;;5069840;28;20028;-38
2023/02/01 00:36:14;;;;;;;29.63;4.75;;;5.30;99.90;;;;;;5069699;28;20070;-39
2023/02/01 00:38:40;;;;;;;25.38;5.20;;;5.40;99.90;;;;;;5073845;28;20429;-38
2023/02/01 00:41:09;;;;;;;23.67;4.75;;;5.40;99.90;;;;;;5081961;28;20073;-38
2023/02/01 00:43:35;;;;;;;26.20;5.63;;;5.40;99.90;;;;;;5090326;28;20031;-38
2023/02/01 00:46:01;;;;;;;26.30;5.38;;;5.40;99.90;;;;;;5089779;28;20024;-38
2023/02/01 00:48:26;;;;;;;25.25;6.38;;;5.50;99.90;;;;;;5090329;28;20024;-38
2023/02/01 00:50:52;;;;;;;28.50;5.97;;;5.50;99.90;;;;;;5086258;28;20033;-39
2023/02/01 00:53:18;;;;;;;28.50;5.80;;;5.50;99.90;;;;;;5068011;28;20115;-38
2023/02/01 00:55:52;;;;;;;28.85;4.63;;;5.50;99.90;;;;;;5069576;28;20107;-38
2023/02/01 00:58:18;;;;;;;27.30;5.75;;;5.50;99.90;;;;;;5069916;28;20056;-38
2023/02/01 01:00:44;;;;;;;26.35;4.57;;;5.50;99.90;;;;;;5069675;28;20080;-38
2023/02/01 01:03:18;;;;;;;26.50;4.88;;;5.50;99.90;;;;;;5069876;28;20029;-38
2023/02/01 01:05:48;;;;;;;25.27;5.15;;;5.50;99.90;;;;;;5069535;28;20077;-38
2023/02/01 01:08:14;;;;;;;30.98;4.93;;;5.60;99.90;;;;;;5069788;28;20027;-38
2023/02/01 01:10:40;;;;;;;32.42;6.13;;;5.60;99.90;;;;;;5081194;28;20462;-38
2023/02/01 01:13:06;;;;;;;23.73;5.28;;;5.60;99.90;;;;;;5089504;28;20062;-38
2023/02/01 01:15:36;;;;;;;23.85;5.00;;;5.50;99.90;;;;;;5088698;28;20028;-39
2023/02/01 01:18:02;;;;;;;20.05;4.30;;;5.50;99.90;;;;;;5089619;28;20035;-39
2023/02/01 01:20:27;;;;;;;27.92;6.00;;;5.50;99.90;;;;;;5089038;28;20024;-39
2023/02/01 01:22:53;;;;;;;22.80;4.78;;;5.50;99.90;;;;;;5068597;28;20031;-39
2023/02/01 01:25:18;;;;;;;23.83;5.18;;;5.60;99.90;;;;;;5068755;28;20021;-39
2023/02/01 01:27:44;;;;;;;40.38;7.50;;;5.50;99.90;;;;;;5069226;28;20060;-39
2023/02/01 01:30:10;;;;;;;27.02;5.45;;;5.50;99.90;;;;;;5068877;28;20020;-39
2023/02/01 01:32:35;;;;;;;33.47;4.90;;;5.40;99.90;;;;;;5069015;28;20020;-39
2023/02/01 01:35:01;;;;;;;22.63;4.43;;;5.40;99.90;;;;;;5068433;28;20424;-39
2023/02/01 01:37:26;;;;;;;26.67;5.47;;;5.40;99.90;;;;;;5069134;28;20032;-40
2023/02/01 01:39:52;;;;;;;32.50;5.05;;;5.50;99.90;;;;;;5077286;28;20416;-39
2023/02/01 01:42:17;;;;;;;28.08;5.07;;;5.50;99.90;;;;;;5084933;28;20138;-39
2023/02/01 01:45:21;;;;;;;28.42;6.00;;;5.50;99.90;;;;;;5088517;28;20560;-39
2023/02/01 01:47:54;;;;;;;24.52;6.15;;;5.60;99.90;;;;;;5026276;28;20390;-39
2023/02/01 01:50:24;;;;;;;26.63;5.45;;;5.60;99.90;;;;;;5026230;28;20056;-38
2023/02/01 01:52:51;;;;;;;29.40;5.90;;;5.60;99.90;;;;;;5030067;28;20068;-38
2023/02/01 01:55:19;;;;;;;25.50;6.35;;;5.60;99.90;;;;;;5068162;28;20055;-38
2023/02/01 01:57:49;;;;;;;34.40;5.65;;;5.60;99.90;;;;;;5068659;28;20031;-37
2023/02/01 02:00:19;;;;;;;19.75;4.65;;;5.60;99.90;;;;;;5068690;28;20035;-38
2023/02/01 02:02:52;;;;;;;39.55;5.20;;;5.50;99.90;;;;;;5068611;28;20025;-38
2023/02/01 02:05:19;;;;;;;26.52;4.85;;;5.60;99.90;;;;;;5068353;28;20366;-38
2023/02/01 02:07:48;;;;;;;21.77;4.60;;;5.60;99.90;;;;;;5068612;28;20028;-38
2023/02/01 02:10:15;;;;;;;39.72;6.18;;;5.60;99.90;;;;;;5076950;28;20027;-38
2023/02/01 02:12:43;;;;;;;31.42;7.28;;;5.60;99.90;;;;;;5087194;28;20028;-38
2023/02/01 02:15:11;;;;;;;30.52;5.03;;;5.60;99.90;;;;;;5088015;28;20020;-38
2023/02/01 02:18:00;;;;;;;24.27;5.18;;;5.60;99.90;;;;;;5089029;28;20038;-38
2023/02/01 02:20:47;;;;;;;23.08;4.63;;;5.60;99.90;;;;;;5088833;28;20056;-38
2023/02/01 02:23:26;;;;;;;36.22;5.35;;;5.60;99.90;;;;;;5068305;28;20024;-38
2023/02/01 02:26:00;;;;;;;36.35;5.70;;;5.60;99.90;;;;;;5047930;28;20086;-38
2023/02/01 02:28:46;;;;;;;25.23;5.30;;;5.50;99.90;;;;;;5045861;28;20064;-38
2023/02/01 02:31:17;;;;;;;20.58;5.75;;;5.50;99.90;;;;;;5040874;28;20037;-38
2023/02/01 02:34:02;;;;;;;29.52;5.90;;;5.50;99.90;;;;;;5049847;28;20435;-39
2023/02/01 02:36:46;;;;;;;33.15;5.15;;;5.50;99.90;;;;;;5051876;28;20025;-39
2023/02/01 02:39:19;;;;;;;20.80;5.65;;;5.50;99.90;;;;;;5060834;28;20029;-39
2023/02/01 02:48:02;;;;;;;28.40;5.70;;;5.50;99.90;;;;;;5072892;28;20077;-38
2023/02/01 03:05:40;;;;;;;25.10;5.47;;;5.50;99.90;;;;;;5051631;28;20036;-38
2023/02/01 03:08:16;;;;;;;40.03;5.57;;;5.40;99.90;;;;;;5051807;28;20029;-38
2023/02/01 03:11:00;;;;;;;27.60;5.85;;;5.40;99.90;;;;;;5052099;28;20048;-39
2023/02/01 03:13:47;;;;;;;36.35;5.38;;;5.40;99.90;;;;;;5051540;28;20040;-39
2023/02/01 03:16:16;;;;;;;30.65;5.18;;;5.40;99.90;;;;;;5050772;28;20068;-38
2023/02/01 03:18:44;;;;;;;29.27;5.53;;;5.50;99.90;;;;;;5051756;28;20025;-38
2023/02/01 03:21:15;;;;;;;28.48;5.25;;;5.50;99.90;;;;;;5051670;28;20021;-38
2023/02/01 03:23:44;;;;;;;31.95;4.90;;;5.50;99.90;;;;;;5042032;28;20025;-39
2023/02/01 03:26:12;;;;;;;27.63;4.78;;;5.40;99.90;;;;;;5051110;28;20021;-39
2023/02/01 03:28:42;;;;;;;35.67;5.53;;;5.50;99.90;;;;;;5051454;28;20086;-39
2023/02/01 03:31:08;;;;;;;27.75;4.80;;;5.40;99.90;;;;;;5051893;28;20399;-38
2023/02/01 03:33:33;;;;;;;34.50;6.10;;;5.40;99.90;;;;;;5051592;28;20174;-38
2023/02/01 03:36:33;;;;;;;34.58;6.15;;;5.40;99.90;;;;;;5050952;28;20029;-38
2023/02/01 03:39:05;;;;;;;30.37;5.57;;;5.40;99.90;;;;;;5057347;28;20020;-39
2023/02/01 03:41:56;;;;;;;31.33;5.60;;;5.30;99.90;;;;;;5062874;28;20023;-39
2023/02/01 03:44:32;;;;;;;29.55;6.03;;;5.30;99.90;;;;;;5070531;28;20048;-39
2023/02/01 03:47:10;;;;;;;26.35;4.75;;;5.30;99.90;;;;;;5070963;28;20028;-39
2023/02/01 03:49:41;;;;;;;24.27;4.85;;;5.30;99.90;;;;;;5071146;28;20090;-39
2023/02/01 03:52:13;;;;;;;31.75;4.97;;;5.30;99.90;;;;;;5056887;28;20028;-39
2023/02/01 03:54:40;;;;;;;26.40;6.72;;;5.30;99.90;;;;;;5042932;28;20025;-38
2023/02/01 03:57:11;;;;;;;34.03;4.75;;;5.30;99.90;;;;;;5050980;28;20032;-39
2023/02/01 03:59:41;;;;;;;25.58;4.85;;;5.30;99.90;;;;;;5050722;28;20024;-39
2023/02/01 04:02:08;;;;;;;28.88;5.05;;;5.30;99.90;;;;;;5050805;28;20340;-39
2023/02/01 04:04:34;;;;;;;18.85;4.15;;;5.30;99.90;;;;;;5050263;28;20033;-40
2023/02/01 04:07:00;;;;;;;30.25;4.65;;;5.30;99.90;;;;;;5050685;28;20313;-38
2023/02/01 04:09:25;;;;;;;29.40;5.05;;;5.30;99.90;;;;;;5052249;28;20100;-39
2023/02/01 04:11:51;;;;;;;36.28;5.78;;;5.30;99.90;;;;;;5056740;28;20032;-52
2023/02/01 04:14:16;;;;;;;22.77;4.55;;;5.30;99.90;;;;;;5049475;28;20017;-39
2023/02/01 04:16:42;;;;;;;17.88;4.00;;;5.30;99.90;;;;;;5050414;28;20271;-39
2023/02/01 04:19:08;;;;;;;22.73;4.68;;;5.40;99.90;;;;;;5050623;28;20027;-39
2023/02/01 04:21:33;;;;;;;25.63;5.25;;;5.40;99.90;;;;;;5050087;28;20470;-39
2023/02/01 04:23:59;;;;;;;28.13;5.15;;;5.30;99.90;;;;;;5049929;28;20040;-40
2023/02/01 04:26:25;;;;;;;23.00;5.50;;;5.30;99.90;;;;;;5049991;28;20032;-49
2023/02/01 04:28:52;;;;;;;24.55;4.80;;;5.30;99.90;;;;;;5049672;28;20029;-51
2023/02/01 04:31:25;;;;;;;32.17;5.82;;;5.40;99.90;;;;;;5049390;28;20025;-52
2023/02/01 04:33:57;;;;;;;26.98;5.20;;;5.40;99.90;;;;;;5049807;28;20678;-50
2023/02/01 04:36:23;;;;;;;29.95;6.75;;;5.40;99.90;;;;;;5054096;28;20029;-48
2023/02/01 04:38:50;;;;;;;21.63;5.00;;;5.30;99.90;;;;;;5049600;28;20009;-50
2023/02/01 04:41:19;;;;;;;35.17;6.63;;;5.30;99.90;;;;;;5049747;28;20028;-49
2023/02/01 04:43:49;;;;;;;27.20;7.10;;;5.20;99.90;;;;;;5049625;28;20025;-39
2023/02/01 04:46:14;;;;;;;28.67;5.53;;;5.30;99.90;;;;;;5049234;28;20029;-39
2023/02/01 04:48:40;;;;;;;27.80;6.35;;;5.30;99.90;;;;;;5049608;28;20314;-39
2023/02/01 04:51:06;;;;;;;27.88;5.07;;;5.30;99.90;;;;;;5049586;28;20049;-39
2023/02/01 04:53:31;;;;;;;28.58;5.28;;;5.30;99.90;;;;;;5049078;28;20025;-39
2023/02/01 04:55:57;;;;;;;27.83;6.88;;;5.20;99.90;;;;;;5028004;28;20025;-51
2023/02/01 04:58:23;;;;;;;26.73;5.38;;;5.30;99.90;;;;;;5048128;28;20402;-49
2023/02/01 05:00:49;;;;;;;24.58;5.18;;;5.30;99.90;;;;;;5047184;28;20043;-49
2023/02/01 05:03:15;;;;;;;30.02;6.47;;;5.30;99.90;;;;;;5049512;28;20036;-51
2023/02/01 05:05:40;;;;;;;29.17;6.25;;;5.30;99.90;;;;;;5049286;28;20037;-49
2023/02/01 05:08:06;;;;;;;29.15;5.57;;;5.30;99.90;;;;;;5049768;28;20028;-52
2023/02/01 05:10:31;;;;;;;29.08;5.78;;;5.40;99.90;;;;;;5049311;28;20406;-50
2023/02/01 05:15:41;;;;;;;29.20;5.43;;;5.40;99.90;;;;;;5049475;28;20486;-47
2023/02/01 05:18:06;;;;;;;22.60;6.45;;;5.30;99.90;;;;;;5049248;28;20044;-49
2023/02/01 05:20:32;;;;;;;24.95;5.88;;;5.40;99.90;;;;;;5049263;28;20536;-49
2023/02/01 05:22:57;;;;;;;26.25;6.47;;;5.40;99.90;;;;;;5048934;28;20021;-50
2023/02/01 05:25:23;;;;;;;32.00;7.22;;;5.50;99.90;;;;;;5048765;28;20025;-49
2023/02/01 05:27:49;;;;;;;18.50;5.28;;;5.40;99.90;;;;;;5049055;28;20029;-50
2023/02/01 05:30:14;;;;;;;24.92;6.63;;;5.40;99.90;;;;;;5048965;28;20033;-48
2023/02/01 05:32:40;;;;;;;24.23;6.57;;;5.40;99.90;;;;;;5049361;28;20120;-49
2023/02/01 05:35:06;;;;;;;26.92;6.53;;;5.40;99.90;;;;;;5048560;28;20104;-47
2023/02/01 05:37:31;;;;;;;19.77;5.40;;;5.30;99.90;;;;;;5048941;28;20078;-47
2023/02/01 05:39:57;;;;;;;26.75;6.22;;;5.30;99.90;;;;;;5049137;28;20028;-47
2023/02/01 05:42:22;;;;;;;29.10;6.45;;;5.20;99.90;;;;;;5049193;28;20044;-48
2023/02/01 05:44:48;;;;;;;28.80;6.15;;;5.10;99.90;;;;;;5048380;28;20044;-48
2023/02/01 05:47:14;;;;;;;32.85;5.93;;;5.00;99.90;;;;;;5048911;28;20029;-50
2023/02/01 05:49:40;;;;;;;23.10;5.93;;;5.00;99.90;;;;;;5048721;28;20096;-48
2023/02/01 05:52:06;;;;;;;27.27;6.03;;;5.00;99.90;;;;;;5048290;28;20033;-51
2023/02/01 05:54:31;;;;;;;27.40;6.57;;;4.90;99.90;;;;;;5048287;28;20098;-48
2023/02/01 05:56:57;;;;;;;24.98;6.03;;;4.80;99.90;;;;;;5031149;28;20264;-39
2023/02/01 05:59:22;;;;;;;34.47;7.15;;;4.80;99.90;;;;;;5048186;28;20032;-39
2023/02/01 06:01:48;;;;;;;19.95;6.03;;;4.90;99.90;;;;;;5048165;28;20283;-39
2023/02/01 06:04:14;;;;;;;25.17;6.80;;;4.80;99.90;;;;;;5048146;28;20028;-39
2023/02/01 06:06:39;;;;;;;29.95;7.20;;;4.80;99.90;;;;;;5047607;28;20364;-38
2023/02/01 06:09:05;;;;;;;30.20;6.50;;;4.80;99.90;;;;;;5047555;28;20031;-38
2023/02/01 06:11:30;;;;;;;18.77;5.25;;;4.70;99.90;;;;;;5047982;28;20025;-39
2023/02/01 06:13:56;;;;;;;25.63;5.15;;;4.70;99.90;;;;;;5047622;28;20107;-39
2023/02/01 06:16:22;;;;;;;30.08;6.82;;;4.60;99.90;;;;;;5047489;28;20020;-39
2023/02/01 06:18:48;;;;;;;25.42;6.03;;;4.60;99.90;;;;;;5047695;28;20436;-46
2023/02/01 06:21:23;;;;;;;23.15;6.35;;;4.50;99.90;;;;;;5047205;28;20013;-47
2023/02/01 06:23:52;;;;;;;31.73;10.45;;;4.50;99.90;;;;;;5046124;28;20025;-47
2023/02/01 06:26:17;;;;;;;42.42;10.27;;;4.50;99.90;;;;;;5047111;28;20047;-47
2023/02/01 06:28:43;;;;;;;30.02;6.72;;;4.50;99.90;;;;;;5047933;28;20541;-47
2023/02/01 06:31:09;;;;;;;26.73;7.75;;;4.50;99.90;;;;;;5046259;28;20076;-48
2023/02/01 06:33:36;;;;;;;34.28;8.55;;;4.60;99.90;;;;;;5048003;28;20057;-47
2023/02/01 06:36:04;;;;;;;25.70;6.03;;;4.50;99.90;;;;;;5048640;28;20052;-48
2023/02/01 06:38:31;;;;;;;26.73;6.65;;;4.60;99.90;;;;;;5048426;28;20029;-47
2023/02/01 06:40:58;;;;;;;32.70;9.95;;;4.60;99.90;;;;;;5047550;28;20029;-47
2023/02/01 06:43:25;;;;;;;38.22;7.60;;;4.60;99.90;;;;;;5047746;28;20490;-47
2023/02/01 06:45:52;;;;;;;26.83;7.00;;;4.60;99.90;;;;;;5047065;28;20032;-47
2023/02/01 06:48:18;;;;;;;34.17;7.90;;;4.60;99.90;;;;;;5047370;28;20552;-47
2023/02/01 06:50:44;;;;;;;31.42;7.57;;;4.60;99.90;;;;;;5047647;28;20035;-47
2023/02/01 06:53:09;;;;;;;32.65;7.40;;;4.60;99.90;;;;;;5046722;28;20021;-47
2023/02/01 06:55:35;;;;;;;24.10;8.18;;;4.60;99.90;;;;;;5044662;28;20502;-47
2023/02/01 06:58:01;;;;;;;21.83;6.60;;;4.60;99.90;;;;;;5038594;28;20028;-47
2023/02/01 07:00:28;;;;;;;33.92;7.45;;;4.60;99.90;;;;;;5047147;28;20020;-47
2023/02/01 07:02:54;;;;;;;26.88;7.20;;;4.60;99.90;;;;;;5044774;28;20033;-49
2023/02/01 07:05:20;;;;;;;27.65;6.68;;;4.60;99.90;;;;;;5045652;28;20032;-50
2023/02/01 07:07:45;;;;;;;21.85;7.07;;;4.60;99.90;;;;;;5047084;28;20269;-47
2023/02/01 07:10:12;;;;;;;16.00;4.75;;;4.60;99.90;;;;;;5047107;28;20029;-46
2023/02/01 07:12:37;;;;;;;21.27;5.28;;;4.60;99.90;;;;;;5047320;28;20029;-46
2023/02/01 07:15:04;;;;;;;15.70;4.65;;;4.50;99.90;;;;;;5046603;28;20493;-45
2023/02/01 07:17:29;;;;;;;12.82;4.90;;;4.40;99.90;;;;;;5045399;28;20376;-46
2023/02/01 07:19:56;;;;;;;21.10;5.38;;;4.40;99.90;;;;;;5047222;28;20025;-45
2023/02/01 07:22:22;;;;;;;20.55;5.25;;;4.30;99.90;;;;;;5050505;28;20079;-47
2023/02/01 07:24:47;;;;;;;21.73;6.07;;;4.30;99.90;;;;;;5050484;28;21024;-46
2023/02/01 07:27:13;;;;;;;22.42;6.13;;;4.40;99.90;;;;;;5050632;28;20033;-47
2023/02/01 07:29:39;;;;;;;38.05;6.22;;;4.40;99.90;;;;;;5050840;28;20029;-49
2023/02/01 07:32:05;;;;;;;17.05;5.80;;;4.40;99.90;;;;;;5050169;28;20035;-47
2023/02/01 07:34:30;;;;;;;14.45;4.85;;;4.40;99.90;;;;;;5050569;28;20025;-46
2023/02/01 07:36:56;;;;;;;17.25;6.30;;;4.40;99.90;;;;;;5050758;28;20094;-49
2023/02/01 07:39:22;;;;;;;19.77;5.60;;;4.50;99.90;;;;;;5050372;28;20029;-46
2023/02/01 07:41:47;;;;;;;23.23;6.05;;;4.50;99.90;;;;;;5049048;28;20478;-47
2023/02/01 07:44:13;;;;;;;16.05;5.80;;;4.50;99.90;;;;;;5048548;28;20356;-48
2023/02/01 07:46:39;;;;;;;18.65;6.15;;;4.40;99.90;;;;;;5050127;28;20016;-46
2023/02/01 07:49:05;;;;;;;17.88;6.40;;;4.50;99.90;;;;;;5050273;28;20486;-49
2023/02/01 07:51:30;;;;;;;18.80;5.50;;;4.50;99.90;;;;;;5050079;28;20032;-48
2023/02/01 07:53:56;;;;;;;29.20;6.47;;;4.50;99.90;;;;;;5051337;28;20028;-47
2023/02/01 07:56:25;;;;;;;26.33;6.43;;;4.50;99.90;;;;;;5051445;28;20025;-46
2023/02/01 07:58:52;;;;;;;27.38;6.55;;;4.50;99.90;;;;;;5047383;28;20075;-46
2023/02/01 08:01:20;;;;;;;21.02;6.28;;;4.50;99.90;;;;;;5063662;28;20021;-45
2023/02/01 08:03:47;;;;;;;22.65;6.90;;;4.50;99.90;;;;;;5051939;28;20674;-49
2023/02/01 08:06:13;;;;;;;26.52;7.50;;;4.50;99.90;;;;;;5050754;28;20033;-47
2023/02/01 08:08:38;;;;;;;21.15;5.93;;;4.50;99.90;;;;;;5051124;28;20035;-49
2023/02/01 08:11:06;;;;;;;13.48;5.28;;;4.50;99.90;;;;;;5050815;28;20075;-47
2023/02/01 08:13:32;;;;;;;24.80;5.45;;;4.50;99.90;;;;;;5051142;28;20036;-48
2023/02/01 08:16:03;;;;;;;22.50;6.63;;;4.50;99.90;;;;;;5050799;28;20025;-46
2023/02/01 08:18:29;;;;;;;21.55;5.38;;;4.40;99.90;;;;;;5051581;28;20028;-48
2023/02/01 08:20:55;;;;;;;17.02;5.18;;;4.50;99.90;;;;;;5050988;28;20025;-46
2023/02/01 08:23:21;;;;;;;18.83;4.93;;;4.50;99.90;;;;;;5050878;28;20017;-46
2023/02/01 08:25:47;;;;;;;21.80;5.45;;;4.40;99.90;;;;;;5050923;28;20083;-46
2023/02/01 08:28:12;;;;;;;20.95;4.97;;;4.40;99.90;;;;;;5046623;28;20028;-49
2023/02/01 08:30:39;;;;;;;21.67;7.47;;;4.30;99.90;;;;;;5049342;28;20469;-46
2023/02/01 08:33:06;;;;;;;29.92;7.22;;;4.40;99.90;;;;;;5050601;28;20082;-47
2023/02/01 08:35:32;;;;;;;24.65;6.65;;;4.40;99.90;;;;;;5049470;28;20509;-48
2023/02/01 08:37:58;;;;;;;26.60;6.65;;;4.40;99.90;;;;;;5049110;28;20059;-47
2023/02/01 08:40:23;;;;;;;22.55;7.00;;;4.40;99.90;;;;;;5050246;28;20021;-48
2023/02/01 08:42:52;;;;;;;26.02;6.82;;;4.40;99.90;;;;;;5050222;28;20051;-46
2023/02/01 08:45:25;;;;;;;23.15;7.45;;;4.40;99.90;;;;;;5050962;28;20058;-46
2023/02/01 08:47:52;;;;;;;36.03;7.68;;;4.40;99.90;;;;;;5051621;28;20023;-46
2023/02/01 08:50:19;;;;;;;21.10;6.18;;;4.40;99.90;;;;;;5050088;28;21141;-47
2023/02/01 08:52:44;;;;;;;24.42;5.88;;;4.40;99.90;;;;;;5049409;28;20502;-47
2023/02/01 08:55:10;;;;;;;24.10;6.90;;;4.40;99.90;;;;;;5049606;28;20017;-47
2023/02/01 08:57:36;;;;;;;20.27;5.78;;;4.40;99.90;;;;;;5049985;28;20024;-50
2023/02/01 09:00:04;;;;;;;27.95;6.03;;;4.40;99.90;;;;;;5049954;28;20582;-47
2023/02/01 09:02:30;;;;;;;18.52;5.45;;;4.40;99.90;;;;;;5050229;28;20024;-47
2023/02/01 09:04:55;;;;;;;27.02;5.30;;;4.50;99.90;;;;;;5049732;28;20025;-47
2023/02/01 09:07:21;;;;;;;17.67;4.10;;;4.40;99.90;;;;;;5049770;28;20494;-48
2023/02/01 09:09:47;;;;;;;18.50;4.30;;;4.50;99.90;;;;;;5049684;28;20490;-47
2023/02/01 09:12:12;;;;;;;18.08;5.00;;;4.50;99.90;;;;;;5049387;28;20498;-47
2023/02/01 09:14:38;;;;;;;15.23;4.07;;;4.70;99.90;;;;;;5049427;28;20493;-48
2023/02/01 09:17:05;;;;;;;13.95;3.58;;;4.80;99.90;;;;;;5049728;28;20021;-47
2023/02/01 09:19:31;;;;;;;11.23;3.25;;;4.80;99.90;;;;;;5049439;28;20040;-49
2023/02/01 09:21:57;;;;;;;23.25;3.88;;;4.80;99.90;;;;;;5049239;28;20070;-46
2023/02/01 09:24:23;;;;;;;13.05;4.00;;;4.80;99.90;;;;;;5048976;28;20024;-47
2023/02/01 09:26:49;;;;;;;15.13;3.90;;;4.70;99.90;;;;;;5048707;28;20025;-47
2023/02/01 09:29:14;;;;;;;18.85;5.22;;;4.70;99.90;;;;;;5048168;28;20053;-47
2023/02/01 09:31:40;;;;;;;17.10;4.60;;;4.70;99.90;;;;;;5049469;28;20021;-47
2023/02/01 09:34:07;;;;;;;27.92;4.95;;;4.80;99.90;;;;;;5049187;28;20100;-47
2023/02/01 09:36:33;;;;;;;26.05;4.47;;;4.80;99.90;;;;;;5048772;28;20029;-50
2023/02/01 09:38:59;;;;;;;14.52;4.22;;;5.00;99.90;;;;;;5048790;28;20075;-47
2023/02/01 09:41:40;;;;;;;23.55;4.95;;;5.00;99.90;;;;;;5049171;28;20025;-47
2023/02/01 09:44:26;;;;;;;15.60;4.95;;;5.00;99.90;;;;;;5048770;28;20068;-49
2023/02/01 09:46:56;;;;;;;14.02;5.18;;;4.80;99.90;;;;;;5048748;28;20083;-47
2023/02/01 09:49:27;;;;;;;17.30;4.55;;;4.70;99.90;;;;;;5048934;28;20136;-48
2023/02/01 09:51:55;;;;;;;24.60;5.50;;;4.60;99.90;;;;;;5048638;28;20429;-50
2023/02/01 09:54:28;;;;;;;21.15;5.53;;;4.60;99.90;;;;;;5048530;28;20023;-47
2023/02/01 09:57:19;;;;;;;16.52;5.18;;;4.50;99.90;;;;;;5048127;28;20143;-48
2023/02/01 09:59:50;;;;;;;25.20;5.82;;;4.60;99.90;;;;;;5049049;28;20053;-47
2023/02/01 10:02:24;;;;;;;18.75;5.57;;;4.60;99.90;;;;;;5047477;28;20098;-49
2023/02/01 10:04:53;;;;;;;22.08;5.40;;;4.60;99.90;;;;;;5048047;28;20028;-48
2023/02/01 10:07:37;;;;;;;26.45;6.38;;;4.60;99.90;;;;;;5048654;28;20029;-47
2023/02/01 10:10:28;;;;;;;24.13;5.28;;;4.60;99.90;;;;;;5049004;28;20106;-46
2023/02/01 10:13:38;;;;;;;23.80;6.70;;;4.60;99.90;;;;;;5048389;28;20028;-47
2023/02/01 10:16:25;;;;;;;33.58;7.32;;;4.60;99.90;;;;;;5048285;28;20090;-48
2023/02/01 10:19:06;;;;;;;29.45;7.03;;;4.80;99.90;;;;;;5048541;28;20036;-47
2023/02/01 10:21:51;;;;;;;40.95;7.45;;;5.10;99.90;;;;;;5048325;28;20017;-47
2023/02/01 10:24:28;;;;;;;22.35;6.97;;;5.30;99.90;;;;;;5048333;28;20017;-46
2023/02/01 10:27:19;;;;;;;21.77;5.07;;;5.60;99.90;;;;;;5048280;28;20036;-47
2023/02/01 10:29:50;;;;;;;25.95;7.43;;;5.70;99.90;;;;;;5048659;28;20051;-47
2023/02/01 10:32:29;;;;;;;24.80;6.57;;;6.30;99.90;;;;;;5048561;28;20048;-48
2023/02/01 10:35:15;;;;;;;20.75;5.25;;;6.30;99.90;;;;;;5048182;28;20057;-48
2023/02/01 10:37:42;;;;;;;23.77;5.57;;;6.00;99.90;;;;;;5048326;28;20036;-47
2023/02/01 10:40:23;;;;;;;19.17;5.03;;;5.90;99.90;;;;;;5036722;28;20075;-48
2023/02/01 10:42:56;;;;;;;17.10;5.25;;;5.80;99.90;;;;;;5046066;28;20291;-47
2023/02/01 10:45:25;;;;;;;18.77;5.45;;;5.70;99.90;;;;;;5047085;28;20474;-49
2023/02/01 10:47:53;;;;;;;22.80;4.65;;;5.80;99.90;;;;;;5047449;28;20479;-46
2023/02/01 10:50:29;;;;;;;18.77;5.78;;;6.30;99.90;;;;;;5047638;28;20074;-49
2023/02/01 10:53:06;;;;;;;20.65;5.28;;;6.50;99.90;;;;;;5047340;28;20017;-47
2023/02/01 10:55:37;;;;;;;19.58;4.53;;;6.30;99.90;;;;;;5049207;28;20554;-48
2023/02/01 10:58:15;;;;;;;17.38;4.40;;;6.40;99.90;;;;;;5051346;28;20033;-48
2023/02/01 11:00:53;;;;;;;20.50;4.68;;;6.50;99.90;;;;;;5051833;28;20478;-47
2023/02/01 11:03:30;;;;;;;11.63;4.10;;;6.50;99.90;;;;;;5051324;28;20083;-48
2023/02/01 11:05:57;;;;;;;19.92;4.45;;;6.90;99.90;;;;;;5050778;28;20104;-47
2023/02/01 11:08:22;;;;;;;17.55;5.50;;;7.10;99.90;;;;;;5051080;28;20031;-47
2023/02/01 11:11:01;;;;;;;18.67;4.63;;;7.20;99.90;;;;;;5051598;28;20111;-47
2023/02/01 11:13:35;;;;;;;14.65;4.20;;;7.40;99.90;;;;;;5051143;28;20719;-48
2023/02/01 11:16:03;;;;;;;16.65;4.32;;;7.40;99.90;;;;;;5050575;28;20169;-48
2023/02/01 11:18:34;;;;;;;19.08;4.32;;;7.50;99.90;;;;;;5051102;28;20425;-49
2023/02/01 11:21:00;;;;;;;21.02;4.28;;;7.20;99.90;;;;;;5051071;28;20356;-48
2023/02/01 11:23:28;;;;;;;28.33;4.97;;;7.00;99.90;;;;;;5049254;28;20020;-47
2023/02/01 11:25:57;;;;;;;14.02;4.65;;;6.90;99.90;;;;;;5050489;28;20025;-48
2023/02/01 11:28:30;;;;;;;26.17;5.30;;;6.80;99.90;;;;;;5050571;28;20444;-47
2023/02/01 11:30:59;;;;;;;14.13;3.90;;;6.80;99.90;;;;;;5049466;28;20120;-46
2023/02/01 11:33:33;;;;;;;27.50;4.82;;;6.80;99.90;;;;;;5050400;28;20445;-46
2023/02/01 11:36:00;;;;;;;12.68;4.40;;;6.80;99.90;;;;;;5050495;28;20021;-46
2023/02/01 11:38:29;;;;;;;24.35;5.45;;;6.70;99.90;;;;;;5050518;28;20416;-46
2023/02/01 11:41:10;;;;;;;16.35;4.70;;;6.70;99.90;;;;;;5046380;28;20100;-47
2023/02/01 11:43:35;;;;;;;18.73;4.72;;;6.60;99.90;;;;;;5045800;28;20037;-39
2023/02/01 11:46:02;;;;;;;19.83;5.00;;;6.60;99.90;;;;;;5050194;28;20025;-39
2023/02/01 11:48:32;;;;;;;22.15;4.22;;;6.60;99.90;;;;;;5050418;28;20136;-38
2023/02/01 11:51:04;;;;;;;28.63;5.93;;;6.60;99.90;;;;;;5050083;28;20473;-39
2023/02/01 11:54:05;;;;;;;26.30;7.72;;;6.60;99.90;;;;;;5050159;28;20157;-38
2023/02/01 11:56:52;;;;;;;16.00;4.35;;;6.70;99.90;;;;;;5015496;28;20144;-38
2023/02/01 11:59:32;;;;;;;22.65;4.25;;;7.00;99.90;;;;;;5049979;28;20237;-39
2023/02/01 12:02:17;;;;;;;16.08;4.65;;;7.10;99.90;;;;;;5050111;28;20017;-38
2023/02/01 12:04:57;;;;;;;22.70;3.70;;;7.30;99.90;;;;;;5049503;28;20043;-38
2023/02/01 12:07:36;;;;;;;30.33;4.70;;;7.40;99.90;;;;;;5049421;28;20025;-39
2023/02/01 12:10:23;;;;;;;13.13;3.72;;;7.40;99.90;;;;;;5050092;28;20051;-39
2023/02/01 12:13:13;;;;;;;26.08;4.82;;;7.40;99.90;;;;;;5049721;28;20488;-39
2023/02/01 12:15:59;;;;;;;13.48;3.47;;;7.40;99.90;;;;;;5049264;28;20501;-38
2023/02/01 12:18:40;;;;;;;15.25;3.75;;;7.30;99.90;;;;;;5049484;28;20024;-39
2023/02/01 12:21:18;;;;;;;18.17;4.13;;;7.10;99.90;;;;;;5049530;28;20009;-39
2023/02/01 12:23:55;;;;;;;17.15;3.05;;;7.10;99.90;;;;;;5041941;28;20028;-39
2023/02/01 12:26:40;;;;;;;23.95;4.05;;;7.00;99.90;;;;;;5049049;28;20032;-39
2023/02/01 12:29:30;;;;;;;13.35;3.35;;;7.00;99.90;;;;;;5049646;28;20027;-39
2023/02/01 12:32:29;;;;;;;14.38;3.47;;;6.90;99.90;;;;;;5049489;28;20079;-39
2023/02/01 12:35:31;;;;;;;18.23;3.83;;;6.90;99.90;;;;;;5049110;28;20486;-39
2023/02/01 12:38:13;;;;;;;18.60;4.43;;;6.80;99.90;;;;;;5049265;28;20451;-39
2023/02/01 12:40:52;;;;;;;19.15;4.18;;;6.80;99.90;;;;;;5049451;28;20029;-38
2023/02/01 12:43:49;;;;;;;16.90;3.80;;;6.80;99.90;;;;;;5045687;28;20049;-38
2023/02/01 12:46:46;;;;;;;23.30;6.55;;;6.70;99.90;;;;;;5026847;28;20029;-39
2023/02/01 12:49:15;;;;;;;21.70;4.38;;;6.70;99.90;;;;;;5030010;28;20048;-39
2023/02/01 12:51:45;;;;;;;22.30;5.80;;;6.60;99.90;;;;;;5048458;28;20032;-39
2023/02/01 12:54:21;;;;;;;16.38;4.43;;;6.50;99.90;;;;;;5048579;28;20024;-39
2023/02/01 12:56:57;;;;;;;21.42;4.70;;;6.50;99.90;;;;;;5048233;28;20543;-39
2023/02/01 12:59:39;;;;;;;20.52;5.63;;;6.50;99.90;;;;;;5044662;28;20075;-38
2023/02/01 13:02:26;;;;;;;24.40;4.45;;;6.30;99.90;;;;;;5047766;28;20059;-47
2023/02/01 13:05:13;;;;;;;15.50;4.20;;;6.10;99.90;;;;;;5046323;28;20021;-38
2023/02/01 13:07:52;;;;;;;23.40;5.30;;;6.00;99.90;;;;;;5044731;28;20023;-47
2023/02/01 13:10:45;;;;;;;19.63;4.55;;;5.90;99.90;;;;;;5044595;28;20096;-48
2023/02/01 13:13:17;;;;;;;18.80;3.90;;;5.80;99.90;;;;;;5047902;28;20132;-48
2023/02/01 13:15:45;;;;;;;26.88;5.45;;;5.70;99.90;;;;;;5048878;28;20025;-38
2023/02/01 13:18:18;;;;;;;18.42;4.47;;;5.60;99.90;;;;;;5048521;28;20009;-47
2023/02/01 13:20:58;;;;;;;21.08;5.13;;;5.50;99.90;;;;;;5049438;28;20092;-47
2023/02/01 13:23:28;;;;;;;16.93;4.37;;;5.50;99.90;;;;;;5047294;28;20051;-38
2023/02/01 13:25:54;;;;;;;19.60;5.20;;;5.40;99.90;;;;;;5045950;28;20744;-38
2023/02/01 13:28:32;;;;;;;17.92;4.85;;;5.30;99.90;;;;;;5049163;28;20043;-47
2023/02/01 13:31:09;;;;;;;12.23;4.45;;;5.30;99.90;;;;;;5047385;28;20033;-46